Time;durP1;ratioP1;P1;durP2;ratioP2;P2;SDS_P1;SDS_P2;PMS_P1;PMS_P2;Temp;Humidity;BMP_temperature;BMP_pressure;BME280_temperature;BME280_humidity;BME280_pressure;Samples;Min_cycle;Max_cycle;Signal;HPM_P1;HPM_P2
2022/08/01 00:01:35;;;;;;;;;;;20.30;50.80;;;;;;5160696;27;19930;-45
2022/08/01 00:04:01;;;;;;;;;;;20.20;50.30;;;;;;5164456;27;19930;-57
2022/08/01 00:06:26;;;;;;;;;;;20.00;50.20;;;;;;5143809;27;19933;-46
2022/08/01 00:08:52;;;;;;;;;;;19.90;50.00;;;;;;5161663;27;19945;-44
2022/08/01 00:11:18;;;;;;;;;;;19.80;50.30;;;;;;5148183;27;20381;-47
2022/08/01 00:13:44;;;;;;;;;;;20.60;53.60;;;;;;5161202;27;19923;-48
2022/08/01 00:16:09;;;;;;;;;;;21.30;54.20;;;;;;5161150;27;19926;-47
2022/08/01 00:18:35;;;;;;;;;;;21.80;52.60;;;;;;5166786;27;20374;-47
2022/08/01 00:21:02;;;;;;;;;;;21.00;52.20;;;;;;5159652;27;19945;-47
2022/08/01 00:23:28;;;;;;;;;;;20.50;52.00;;;;;;5162414;27;19945;-54
2022/08/01 00:25:53;;;;;;;;;;;20.30;51.60;;;;;;5164815;27;19931;-46
2022/08/01 00:28:19;;;;;;;;;;;20.30;50.60;;;;;;5161297;27;20267;-48
2022/08/01 00:30:45;;;;;;;;;;;20.10;50.80;;;;;;5166831;27;20187;-48
2022/08/01 00:33:11;;;;;;;;;;;20.10;50.20;;;;;;5161016;27;20354;-47
2022/08/01 00:35:36;;;;;;;;;;;19.80;50.60;;;;;;5160758;27;19964;-48
2022/08/01 00:38:02;;;;;;;;;;;20.10;52.50;;;;;;5165907;27;20270;-49
2022/08/01 00:40:28;;;;;;;;;;;20.90;54.70;;;;;;5159598;27;19927;-47
2022/08/01 00:42:54;;;;;;;;;;;21.60;54.00;;;;;;5162966;27;19933;-53
2022/08/01 00:45:20;;;;;;;;;;;21.50;52.60;;;;;;5170097;27;19930;-45
2022/08/01 00:47:45;;;;;;;;;;;20.80;52.30;;;;;;5164538;27;19922;-45
2022/08/01 00:50:11;;;;;;;;;;;20.40;51.80;;;;;;5169901;27;19938;-48
2022/08/01 00:52:37;;;;;;;;;;;20.30;51.50;;;;;;5164267;27;20385;-47
2022/08/01 00:55:03;;;;;;;;;;;20.10;51.10;;;;;;5164327;27;19946;-46
2022/08/01 00:57:29;;;;;;;;;;;20.00;50.80;;;;;;5168272;27;20017;-52
2022/08/01 00:59:55;;;;;;;;;;;20.20;53.60;;;;;;5144743;27;19927;-47
2022/08/01 01:02:20;;;;;;;;;;;21.10;55.00;;;;;;5164215;27;19923;-46
2022/08/01 01:04:46;;;;;;;;;;;21.80;53.60;;;;;;5169790;27;19936;-45
2022/08/01 01:07:31;;;;;;;;;;;21.00;53.10;;;;;;5164426;27;19923;-47
2022/08/01 01:09:58;;;;;;;;;;;20.60;52.20;;;;;;5165412;27;19929;-52
2022/08/01 01:12:35;;;;;;;;;;;20.30;51.70;;;;;;5150487;27;20366;-47
2022/08/01 01:15:00;;;;;;;;;;;20.10;51.20;;;;;;5144707;27;20013;-48
2022/08/01 01:17:27;;;;;;;;;;;20.20;50.60;;;;;;5168049;27;19927;-54
2022/08/01 01:19:54;;;;;;;;;;;20.10;50.20;;;;;;5144896;27;19929;-49
2022/08/01 01:22:36;;;;;;;;;;;20.30;54.50;;;;;;5145150;27;20365;-50
2022/08/01 01:25:02;;;;;;;;;;;21.20;55.10;;;;;;5169330;27;19933;-47
2022/08/01 01:27:45;;;;;;;;;;;21.80;53.10;;;;;;5163662;27;20293;-46
2022/08/01 01:30:10;;;;;;;;;;;20.90;52.70;;;;;;5163634;27;19926;-46
2022/08/01 01:32:38;;;;;;;;;;;20.40;52.30;;;;;;5169189;27;19922;-47
2022/08/01 01:35:05;;;;;;;;;;;20.20;51.50;;;;;;5161905;27;19927;-48
2022/08/01 01:37:31;;;;;;;;;;;20.00;51.10;;;;;;5144375;27;19927;-46
2022/08/01 01:39:57;;;;;;;;;;;19.90;50.80;;;;;;5150241;27;20366;-48
2022/08/01 01:42:23;;;;;;;;;;;20.20;53.90;;;;;;5163630;27;19958;-49
2022/08/01 01:44:48;;;;;;;;;;;21.10;55.30;;;;;;5120639;27;19930;-53
2022/08/01 01:47:14;;;;;;;;;;;21.80;53.80;;;;;;5149887;27;19942;-47
2022/08/01 01:49:40;;;;;;;;;;;21.10;53.20;;;;;;5163066;27;19981;-46
2022/08/01 01:52:06;;;;;;;;;;;20.60;52.40;;;;;;5147886;27;20259;-47
2022/08/01 01:54:36;;;;;;;;;;;20.20;51.90;;;;;;5125015;27;19929;-47
2022/08/01 01:57:02;;;;;;;;;;;20.20;51.00;;;;;;5142793;27;20006;-45
2022/08/01 01:59:28;;;;;;;;;;;19.80;51.10;;;;;;5149788;27;20278;-48
2022/08/01 02:01:55;;;;;;;;;;;19.80;51.40;;;;;;5143998;27;20291;-46
2022/08/01 02:04:21;;;;;;;;;;;20.50;55.60;;;;;;5162933;27;20426;-49
2022/08/01 02:06:46;;;;;;;;;;;21.40;55.20;;;;;;5168348;27;19930;-46
2022/08/01 02:09:16;;;;;;;;;;;21.70;53.20;;;;;;5162953;27;20382;-46
2022/08/01 02:11:41;;;;;;;;;;;20.80;52.90;;;;;;5166764;27;19930;-46
2022/08/01 02:14:08;;;;;;;;;;;20.40;52.20;;;;;;5143740;27;20293;-46
2022/08/01 02:16:34;;;;;;;;;;;20.20;51.70;;;;;;5162885;27;19970;-48
2022/08/01 02:19:00;;;;;;;;;;;20.00;50.90;;;;;;5168679;27;20002;-47
2022/08/01 02:21:30;;;;;;;;;;;19.80;50.90;;;;;;5163035;27;20382;-47
2022/08/01 02:23:56;;;;;;;;;;;20.20;54.80;;;;;;5162875;27;20005;-46
2022/08/01 02:26:21;;;;;;;;;;;21.00;56.10;;;;;;5149954;27;19930;-47
2022/08/01 02:28:48;;;;;;;;;;;21.80;53.90;;;;;;5142845;27;20554;-53
2022/08/01 02:31:14;;;;;;;;;;;20.90;53.40;;;;;;5144165;27;19926;-54
2022/08/01 02:33:45;;;;;;;;;;;20.50;52.60;;;;;;5147006;27;19972;-46
2022/08/01 02:36:11;;;;;;;;;;;20.30;51.90;;;;;;5143103;27;19950;-48
2022/08/01 02:38:37;;;;;;;;;;;20.10;51.10;;;;;;5149514;27;19994;-48
2022/08/01 02:41:04;;;;;;;;;;;20.00;50.90;;;;;;5162275;27;20369;-47
2022/08/01 02:43:29;;;;;;;;;;;20.30;54.80;;;;;;5143050;27;19931;-46
2022/08/01 02:45:57;;;;;;;;;;;21.10;56.00;;;;;;5149373;27;19981;-48
2022/08/01 02:48:23;;;;;;;;;;;21.80;53.90;;;;;;5160852;27;19923;-47
2022/08/01 02:50:49;;;;;;;;;;;20.80;53.50;;;;;;5161527;27;20094;-47
2022/08/01 02:53:16;;;;;;;;;;;20.50;52.70;;;;;;5167761;27;19930;-47
2022/08/01 02:55:42;;;;;;;;;;;20.20;52.10;;;;;;5143026;27;19923;-46
2022/08/01 02:58:08;;;;;;;;;;;20.10;51.10;;;;;;5167868;27;19926;-46
2022/08/01 03:00:34;;;;;;;;;;;19.90;51.10;;;;;;5143625;27;19923;-47
2022/08/01 03:03:00;;;;;;;;;;;19.90;50.40;;;;;;5162207;27;19930;-48
2022/08/01 03:05:25;;;;;;;;;;;19.90;53.80;;;;;;5146275;27;19931;-50
2022/08/01 03:07:51;;;;;;;;;;;20.80;56.40;;;;;;5156781;27;19930;-49
2022/08/01 03:10:18;;;;;;;;;;;21.60;55.50;;;;;;5161717;27;20673;-46
2022/08/01 03:12:43;;;;;;;;;;;21.50;53.80;;;;;;5167552;27;19923;-48
2022/08/01 03:15:09;;;;;;;;;;;20.60;53.60;;;;;;5162157;27;19936;-46
2022/08/01 03:17:35;;;;;;;;;;;20.40;52.20;;;;;;5146864;27;19922;-57
2022/08/01 03:20:02;;;;;;;;;;;20.30;51.50;;;;;;5163936;27;19922;-46
2022/08/01 03:22:28;;;;;;;;;;;20.00;51.20;;;;;;5143520;27;20350;-50
2022/08/01 03:24:54;;;;;;;;;;;19.80;50.90;;;;;;5166044;27;19930;-48
2022/08/01 03:27:19;;;;;;;;;;;20.10;54.50;;;;;;5142165;27;19934;-51
2022/08/01 03:29:45;;;;;;;;;;;20.90;56.90;;;;;;5143253;27;20384;-49
2022/08/01 03:32:11;;;;;;;;;;;21.80;55.50;;;;;;5167568;27;19933;-46
2022/08/01 03:34:37;;;;;;;;;;;21.00;54.00;;;;;;5161831;27;19927;-52
2022/08/01 03:37:05;;;;;;;;;;;20.60;53.10;;;;;;5162725;27;20282;-58
2022/08/01 03:39:34;;;;;;;;;;;20.20;52.40;;;;;;5167000;27;20017;-49
2022/08/01 03:42:03;;;;;;;;;;;20.00;52.00;;;;;;5142174;27;20047;-49
2022/08/01 03:44:30;;;;;;;;;;;19.90;51.20;;;;;;5147295;27;19923;-47
2022/08/01 03:46:58;;;;;;;;;;;19.80;50.70;;;;;;5161442;27;19927;-50
2022/08/01 03:49:25;;;;;;;;;;;20.20;56.30;;;;;;5161760;27;19930;-48
2022/08/01 03:51:51;;;;;;;;;;;21.00;56.90;;;;;;5148664;27;20014;-47
2022/08/01 03:54:17;;;;;;;;;;;21.80;55.00;;;;;;5161442;27;20018;-51
2022/08/01 03:56:43;;;;;;;;;;;20.90;54.20;;;;;;5141318;27;20242;-46
2022/08/01 03:59:09;;;;;;;;;;;20.50;53.00;;;;;;5166936;27;19927;-47
2022/08/01 04:01:35;;;;;;;;;;;20.30;52.20;;;;;;5159825;27;19923;-46
2022/08/01 04:04:01;;;;;;;;;;;20.00;51.50;;;;;;5129308;27;19974;-54
2022/08/01 04:06:27;;;;;;;;;;;19.80;51.20;;;;;;5162819;27;20038;-48
2022/08/01 04:08:56;;;;;;;;;;;19.90;53.00;;;;;;5161555;27;19931;-52
2022/08/01 04:11:23;;;;;;;;;;;20.70;56.80;;;;;;5167034;27;19929;-47
2022/08/01 04:13:49;;;;;;;;;;;21.60;55.80;;;;;;5142717;27;19987;-48
2022/08/01 04:16:15;;;;;;;;;;;21.20;54.30;;;;;;5142489;27;19923;-45
2022/08/01 04:18:40;;;;;;;;;;;20.70;53.10;;;;;;5169409;27;20411;-47
2022/08/01 04:21:06;;;;;;;;;;;20.30;52.50;;;;;;5163493;27;19933;-47
2022/08/01 04:23:32;;;;;;;;;;;20.30;51.60;;;;;;5146087;27;19973;-53
2022/08/01 04:25:59;;;;;;;;;;;20.10;51.30;;;;;;5170049;27;19931;-47
2022/08/01 04:28:24;;;;;;;;;;;19.80;50.80;;;;;;5165063;27;19982;-50
2022/08/01 04:30:51;;;;;;;;;;;20.40;55.60;;;;;;5170315;27;19931;-52
2022/08/01 04:33:17;;;;;;;;;;;21.10;56.80;;;;;;5164687;27;19923;-45
2022/08/01 04:35:45;;;;;;;;;;;21.80;55.00;;;;;;5145901;27;19971;-46
2022/08/01 04:38:12;;;;;;;;;;;20.90;54.10;;;;;;5149587;27;19937;-48
2022/08/01 04:40:38;;;;;;;;;;;20.60;52.80;;;;;;5145622;27;20010;-47
2022/08/01 04:43:05;;;;;;;;;;;20.30;52.20;;;;;;5146076;27;20014;-47
2022/08/01 04:45:31;;;;;;;;;;;19.80;52.30;;;;;;5149814;27;20293;-47
2022/08/01 04:47:57;;;;;;;;;;;19.80;51.40;;;;;;5164746;27;20330;-48
2022/08/01 04:50:24;;;;;;;;;;;20.40;56.10;;;;;;5169848;27;19926;-47
2022/08/01 04:52:51;;;;;;;;;;;21.20;57.00;;;;;;5164605;27;19927;-46
2022/08/01 04:55:17;;;;;;;;;;;21.70;54.80;;;;;;5163885;27;20014;-49
2022/08/01 04:57:43;;;;;;;;;;;20.80;54.20;;;;;;5168150;27;19970;-46
2022/08/01 05:00:10;;;;;;;;;;;20.30;53.10;;;;;;5163627;27;20018;-46
2022/08/01 05:02:36;;;;;;;;;;;20.20;52.20;;;;;;5164221;27;19922;-45
2022/08/01 05:05:01;;;;;;;;;;;19.90;51.80;;;;;;5169593;27;19923;-47
2022/08/01 05:07:27;;;;;;;;;;;19.70;51.20;;;;;;5164147;27;20286;-45
2022/08/01 05:09:53;;;;;;;;;;;19.80;52.40;;;;;;5166977;27;19929;-55
2022/08/01 05:12:19;;;;;;;;;;;20.50;56.70;;;;;;5167277;27;20253;-46
2022/08/01 05:14:45;;;;;;;;;;;21.30;57.30;;;;;;5143568;27;19930;-46
2022/08/01 05:17:11;;;;;;;;;;;21.60;55.50;;;;;;5168731;27;19933;-47
2022/08/01 05:19:37;;;;;;;;;;;20.80;54.30;;;;;;5164191;27;19923;-47
2022/08/01 05:22:04;;;;;;;;;;;20.40;53.50;;;;;;5164092;27;20178;-47
2022/08/01 05:24:30;;;;;;;;;;;20.30;52.40;;;;;;5169726;27;19930;-47
2022/08/01 05:26:56;;;;;;;;;;;20.10;52.10;;;;;;5144127;27;20013;-45
2022/08/01 05:29:22;;;;;;;;;;;20.00;51.50;;;;;;5163403;27;19970;-51
2022/08/01 05:31:48;;;;;;;;;;;20.00;54.80;;;;;;5169052;27;20378;-51
2022/08/01 05:34:14;;;;;;;;;;;20.90;57.60;;;;;;5161972;27;19931;-47
2022/08/01 05:36:40;;;;;;;;;;;21.70;56.90;;;;;;5168401;27;20333;-46
2022/08/01 05:39:05;;;;;;;;;;;21.10;55.30;;;;;;5163508;27;19927;-46
2022/08/01 05:41:31;;;;;;;;;;;20.50;53.90;;;;;;5145405;27;19956;-47
2022/08/01 05:43:57;;;;;;;;;;;20.30;53.00;;;;;;5169303;27;19966;-47
2022/08/01 05:46:23;;;;;;;;;;;20.20;52.60;;;;;;5163464;27;19930;-47
2022/08/01 05:48:48;;;;;;;;;;;20.10;51.90;;;;;;5163416;27;19950;-49
2022/08/01 05:51:14;;;;;;;;;;;19.90;52.00;;;;;;5167709;27;19923;-47
2022/08/01 05:53:40;;;;;;;;;;;20.00;54.70;;;;;;5162733;27;20442;-49
2022/08/01 05:56:06;;;;;;;;;;;20.80;58.20;;;;;;5168570;27;19927;-46
2022/08/01 05:58:32;;;;;;;;;;;21.80;57.20;;;;;;5163667;27;20442;-46
2022/08/01 06:00:57;;;;;;;;;;;21.30;55.40;;;;;;5163476;27;20376;-47
2022/08/01 06:03:23;;;;;;;;;;;20.80;54.30;;;;;;5168461;27;19974;-46
2022/08/01 06:05:50;;;;;;;;;;;20.30;53.50;;;;;;5162980;27;20389;-46
2022/08/01 06:08:16;;;;;;;;;;;20.30;52.60;;;;;;5162948;27;20416;-49
2022/08/01 06:10:42;;;;;;;;;;;20.10;52.30;;;;;;5167213;27;19926;-45
2022/08/01 06:13:08;;;;;;;;;;;20.00;51.90;;;;;;5162613;27;20415;-47
2022/08/01 06:15:34;;;;;;;;;;;20.00;51.50;;;;;;5168269;27;19931;-46
2022/08/01 06:17:59;;;;;;;;;;;19.90;51.60;;;;;;5163236;27;19929;-46
2022/08/01 06:20:25;;;;;;;;;;;20.30;56.90;;;;;;5163067;27;19923;-48
2022/08/01 06:22:54;;;;;;;;;;;21.20;58.30;;;;;;5168161;27;20370;-48
2022/08/01 06:25:20;;;;;;;;;;;21.80;56.80;;;;;;5163052;27;19930;-45
2022/08/01 06:27:46;;;;;;;;;;;21.10;55.30;;;;;;5161686;27;20374;-46
2022/08/01 06:30:12;;;;;;;;;;;20.50;54.40;;;;;;5167337;27;19949;-50
2022/08/01 06:32:37;;;;;;;;;;;20.40;53.60;;;;;;5162483;27;19923;-46
2022/08/01 06:35:03;;;;;;;;;;;20.20;52.80;;;;;;5165024;27;19927;-59
2022/08/01 06:37:30;;;;;;;;;;;20.20;52.30;;;;;;5166324;27;19922;-48
2022/08/01 06:39:56;;;;;;;;;;;20.10;51.90;;;;;;5161596;27;19983;-48
2022/08/01 06:42:21;;;;;;;;;;;20.00;53.70;;;;;;5167605;27;19930;-48
2022/08/01 06:44:47;;;;;;;;;;;20.70;58.30;;;;;;5162569;27;19922;-49
2022/08/01 06:47:13;;;;;;;;;;;21.50;58.70;;;;;;5161081;27;20038;-47
2022/08/01 06:49:39;;;;;;;;;;;21.60;56.60;;;;;;5167294;27;19923;-46
2022/08/01 06:52:05;;;;;;;;;;;21.10;54.90;;;;;;5162045;27;19927;-47
2022/08/01 06:54:30;;;;;;;;;;;20.60;54.30;;;;;;5162452;27;19934;-50
2022/08/01 06:56:56;;;;;;;;;;;20.40;53.40;;;;;;5167715;27;19992;-49
2022/08/01 06:59:22;;;;;;;;;;;20.40;52.50;;;;;;5162079;27;20236;-46
2022/08/01 07:01:48;;;;;;;;;;;20.20;52.20;;;;;;5167838;27;19922;-49
2022/08/01 07:04:13;;;;;;;;;;;20.30;51.80;;;;;;5161118;27;20017;-48
2022/08/01 07:06:39;;;;;;;;;;;20.00;51.80;;;;;;5160940;27;19931;-49
2022/08/01 07:09:05;;;;;;;;;;;20.30;56.30;;;;;;5167418;27;20374;-46
2022/08/01 07:11:31;;;;;;;;;;;21.00;59.20;;;;;;5162139;27;19986;-49
2022/08/01 07:13:56;;;;;;;;;;;21.80;58.00;;;;;;5162145;27;19934;-46
2022/08/01 07:16:22;;;;;;;;;;;21.20;55.90;;;;;;5167763;27;20055;-50
2022/08/01 07:18:48;;;;;;;;;;;20.80;54.50;;;;;;5162211;27;19974;-47
2022/08/01 07:21:14;;;;;;;;;;;20.30;53.90;;;;;;5167320;27;20013;-46
2022/08/01 07:23:40;;;;;;;;;;;20.20;53.00;;;;;;5160121;27;20301;-46
2022/08/01 07:26:07;;;;;;;;;;;20.20;52.90;;;;;;5161271;27;19971;-48
2022/08/01 07:28:32;;;;;;;;;;;20.10;52.40;;;;;;5167306;27;20023;-47
2022/08/01 07:30:58;;;;;;;;;;;19.90;51.80;;;;;;5162229;27;19930;-47
2022/08/01 07:33:24;;;;;;;;;;;19.80;52.20;;;;;;5162105;27;20561;-51
2022/08/01 07:35:50;;;;;;;;;;;20.40;56.90;;;;;;5167271;27;20319;-52
2022/08/01 07:38:16;;;;;;;;;;;21.20;59.00;;;;;;5143089;27;20362;-48
2022/08/01 07:40:43;;;;;;;;;;;21.90;58.40;;;;;;5166590;27;19930;-46
2022/08/01 07:43:08;;;;;;;;;;;21.30;56.00;;;;;;5160272;27;19929;-48
2022/08/01 07:45:34;;;;;;;;;;;20.90;54.50;;;;;;5161240;27;19922;-48
2022/08/01 07:48:04;;;;;;;;;;;20.50;53.70;;;;;;5166955;27;19926;-45
2022/08/01 07:50:29;;;;;;;;;;;20.40;53.10;;;;;;5161761;27;19971;-44
2022/08/01 07:52:55;;;;;;;;;;;20.40;52.40;;;;;;5165337;27;20418;-45
2022/08/01 07:55:21;;;;;;;;;;;20.20;52.30;;;;;;5170567;27;19983;-49
2022/08/01 07:57:47;;;;;;;;;;;20.20;52.10;;;;;;5165361;27;20388;-47
2022/08/01 08:00:13;;;;;;;;;;;20.00;52.00;;;;;;5166485;27;19926;-54
2022/08/01 08:02:38;;;;;;;;;;;20.00;54.10;;;;;;5167782;27;19926;-47
2022/08/01 08:05:06;;;;;;;;;;;20.80;58.30;;;;;;5142338;27;20361;-50
2022/08/01 08:07:32;;;;;;;;;;;21.50;59.10;;;;;;5170754;27;19929;-48
2022/08/01 08:09:57;;;;;;;;;;;21.60;56.90;;;;;;5165006;27;19970;-46
2022/08/01 08:12:23;;;;;;;;;;;21.00;55.30;;;;;;5164853;27;19930;-47
2022/08/01 08:14:49;;;;;;;;;;;20.80;53.80;;;;;;5170299;27;20298;-49
2022/08/01 08:17:15;;;;;;;;;;;20.60;53.10;;;;;;5164494;27;19985;-47
2022/08/01 08:19:41;;;;;;;;;;;20.30;52.80;;;;;;5163545;27;19930;-53
2022/08/01 08:22:07;;;;;;;;;;;20.20;52.40;;;;;;5169947;27;19930;-48
2022/08/01 08:24:33;;;;;;;;;;;20.00;52.00;;;;;;5164849;27;19929;-50
2022/08/01 08:26:59;;;;;;;;;;;20.00;51.90;;;;;;5170495;27;19927;-45
2022/08/01 08:29:26;;;;;;;;;;;19.90;52.00;;;;;;5164672;27;19945;-51
2022/08/01 08:31:52;;;;;;;;;;;20.10;54.70;;;;;;5164645;27;20030;-47
2022/08/01 08:34:17;;;;;;;;;;;20.80;58.40;;;;;;5170116;27;19935;-49
2022/08/01 08:36:43;;;;;;;;;;;21.70;58.90;;;;;;5144769;27;20086;-50
2022/08/01 08:39:09;;;;;;;;;;;21.50;56.80;;;;;;5163846;27;20563;-47
2022/08/01 08:41:35;;;;;;;;;;;21.00;55.20;;;;;;5169653;27;20458;-45
2022/08/01 08:44:04;;;;;;;;;;;20.40;54.60;;;;;;5164510;27;19980;-45
2022/08/01 08:46:32;;;;;;;;;;;20.30;53.70;;;;;;5170416;27;20059;-47
2022/08/01 08:48:58;;;;;;;;;;;20.30;52.50;;;;;;5144346;27;20038;-47
2022/08/01 08:51:25;;;;;;;;;;;19.90;53.00;;;;;;5164309;27;19922;-49
2022/08/01 08:53:51;;;;;;;;;;;20.20;51.80;;;;;;5169495;27;19923;-49
2022/08/01 08:56:17;;;;;;;;;;;20.10;51.60;;;;;;5162903;27;20394;-51
2022/08/01 08:58:43;;;;;;;;;;;20.50;57.70;;;;;;5163955;27;20131;-47
2022/08/01 09:01:10;;;;;;;;;;;21.10;59.70;;;;;;5151011;27;19930;-49
2022/08/01 09:03:35;;;;;;;;;;;21.80;58.10;;;;;;5163562;27;19934;-50
2022/08/01 09:06:02;;;;;;;;;;;21.10;56.30;;;;;;5166496;27;20382;-56
2022/08/01 09:08:28;;;;;;;;;;;20.80;55.00;;;;;;5167647;27;20390;-48
2022/08/01 09:10:54;;;;;;;;;;;20.70;53.70;;;;;;5164181;27;19926;-49
2022/08/01 09:13:19;;;;;;;;;;;20.40;53.30;;;;;;5168148;27;19930;-48
2022/08/01 09:15:50;;;;;;;;;;;20.20;53.00;;;;;;5163092;27;19966;-50
2022/08/01 09:18:26;;;;;;;;;;;20.00;52.70;;;;;;5164143;27;20377;-46
2022/08/01 09:21:00;;;;;;;;;;;20.00;52.40;;;;;;5169682;27;19930;-47
2022/08/01 09:23:36;;;;;;;;;;;20.10;51.80;;;;;;5144946;27;20334;-50
2022/08/01 09:26:01;;;;;;;;;;;20.50;56.90;;;;;;5163674;27;19929;-48
2022/08/01 09:28:28;;;;;;;;;;;21.30;59.40;;;;;;5169210;27;19936;-46
2022/08/01 09:30:55;;;;;;;;;;;21.80;57.90;;;;;;5163174;27;20395;-51
2022/08/01 09:33:21;;;;;;;;;;;21.00;55.90;;;;;;5162188;27;20017;-47
2022/08/01 09:35:53;;;;;;;;;;;20.80;54.30;;;;;;5168648;27;19930;-47
2022/08/01 09:38:20;;;;;;;;;;;20.60;53.90;;;;;;5163529;27;19927;-49
2022/08/01 09:40:53;;;;;;;;;;;20.30;53.40;;;;;;5169087;27;20259;-57
2022/08/01 09:43:20;;;;;;;;;;;20.20;52.50;;;;;;5167333;27;20002;-47
2022/08/01 09:45:46;;;;;;;;;;;20.10;52.60;;;;;;5163550;27;19927;-46
2022/08/01 09:48:17;;;;;;;;;;;20.10;52.30;;;;;;5169165;27;19930;-47
2022/08/01 09:50:44;;;;;;;;;;;20.00;51.90;;;;;;5161784;27;19982;-51
2022/08/01 09:53:10;;;;;;;;;;;20.20;56.70;;;;;;5162688;27;19931;-52
2022/08/01 09:55:36;;;;;;;;;;;20.90;59.70;;;;;;5149903;27;20373;-47
2022/08/01 09:58:04;;;;;;;;;;;21.80;59.20;;;;;;5144934;27;20373;-46
2022/08/01 10:00:30;;;;;;;;;;;21.30;56.80;;;;;;5163179;27;20005;-49
2022/08/01 10:02:55;;;;;;;;;;;20.80;55.40;;;;;;5150002;27;19931;-47
2022/08/01 10:05:31;;;;;;;;;;;20.50;54.30;;;;;;5163214;27;19926;-50
2022/08/01 10:07:58;;;;;;;;;;;20.30;53.80;;;;;;5165004;27;20301;-56
2022/08/01 10:10:24;;;;;;;;;;;20.30;53.00;;;;;;5165367;27;20393;-48
2022/08/01 10:12:50;;;;;;;;;;;20.40;52.10;;;;;;5162991;27;19932;-46
2022/08/01 10:15:16;;;;;;;;;;;20.00;52.00;;;;;;5148430;27;19975;-48
2022/08/01 10:17:44;;;;;;;;;;;20.10;53.50;;;;;;5144667;27;19930;-48
2022/08/01 10:20:11;;;;;;;;;;;20.60;59.10;;;;;;5162962;27;19929;-48
2022/08/01 10:22:36;;;;;;;;;;;21.40;59.70;;;;;;5149658;27;20013;-47
2022/08/01 10:25:03;;;;;;;;;;;21.80;57.30;;;;;;5162828;27;19960;-47
2022/08/01 10:27:29;;;;;;;;;;;21.00;55.80;;;;;;5161099;27;19923;-52
2022/08/01 10:29:56;;;;;;;;;;;20.60;54.60;;;;;;5167394;27;19922;-48
2022/08/01 10:32:22;;;;;;;;;;;20.60;53.40;;;;;;5162597;27;20404;-49
2022/08/01 10:34:51;;;;;;;;;;;20.40;53.00;;;;;;5168171;27;19933;-46
2022/08/01 10:37:23;;;;;;;;;;;20.30;52.60;;;;;;5201957;27;19923;-45
2022/08/01 10:39:49;;;;;;;;;;;20.20;52.50;;;;;;5200482;27;20383;-47
2022/08/01 10:42:15;;;;;;;;;;;20.20;52.10;;;;;;5206067;27;20024;-46
2022/08/01 10:44:41;;;;;;;;;;;20.10;51.70;;;;;;5181061;27;19923;-49
2022/08/01 10:47:13;;;;;;;;;;;20.40;57.50;;;;;;5179946;27;19934;-49
2022/08/01 10:49:50;;;;;;;;;;;21.20;59.80;;;;;;5205731;27;19938;-45
2022/08/01 10:52:18;;;;;;;;;;;21.80;58.10;;;;;;5200244;27;19944;-46
2022/08/01 10:54:44;;;;;;;;;;;21.00;55.90;;;;;;5200321;27;19923;-47
2022/08/01 10:57:11;;;;;;;;;;;20.90;54.20;;;;;;5205726;27;20309;-47
2022/08/01 10:59:47;;;;;;;;;;;20.50;53.80;;;;;;5200260;27;19927;-46
2022/08/01 11:02:13;;;;;;;;;;;20.50;52.70;;;;;;5201191;27;19934;-57
2022/08/01 11:04:45;;;;;;;;;;;20.30;52.50;;;;;;5167157;27;20012;-45
2022/08/01 11:07:13;;;;;;;;;;;20.30;52.30;;;;;;5199566;27;19922;-45
2022/08/01 11:09:40;;;;;;;;;;;20.10;52.30;;;;;;5186486;27;19953;-45
2022/08/01 11:12:08;;;;;;;;;;;20.20;52.00;;;;;;5200415;27;20377;-46
2022/08/01 11:14:34;;;;;;;;;;;20.10;52.30;;;;;;5200091;27;20407;-47
2022/08/01 11:17:19;;;;;;;;;;;20.10;51.60;;;;;;5205302;27;19969;-46
2022/08/01 11:20:04;;;;;;;;;;;20.40;56.90;;;;;;5199930;27;20293;-47
2022/08/01 11:22:29;;;;;;;;;;;21.30;59.30;;;;;;5191855;27;19929;-47
2022/08/01 11:24:56;;;;;;;;;;;21.90;58.20;;;;;;5183071;27;20282;-45
2022/08/01 11:27:22;;;;;;;;;;;21.30;56.30;;;;;;5178321;27;19937;-44
2022/08/01 11:30:06;;;;;;;;;;;20.90;54.60;;;;;;5178687;27;19922;-46
2022/08/01 11:32:32;;;;;;;;;;;20.80;53.60;;;;;;5184229;27;20296;-46
2022/08/01 11:34:58;;;;;;;;;;;20.60;53.10;;;;;;5157372;27;19927;-46
2022/08/01 11:37:27;;;;;;;;;;;20.40;52.70;;;;;;5178373;27;19969;-45
2022/08/01 11:40:12;;;;;;;;;;;20.50;52.30;;;;;;5164651;27;19922;-48
2022/08/01 11:42:37;;;;;;;;;;;20.30;52.10;;;;;;5176984;27;19974;-47
2022/08/01 11:45:04;;;;;;;;;;;20.30;51.90;;;;;;5159366;27;20355;-47
2022/08/01 11:47:42;;;;;;;;;;;20.20;51.70;;;;;;5177186;27;19926;-48
2022/08/01 11:50:25;;;;;;;;;;;20.00;51.80;;;;;;5164510;27;19926;-46
2022/08/01 11:52:56;;;;;;;;;;;19.90;52.50;;;;;;5145384;27;20647;-48
2022/08/01 11:55:22;;;;;;;;;;;20.70;57.30;;;;;;5150982;27;19923;-46
2022/08/01 11:57:47;;;;;;;;;;;21.30;59.20;;;;;;5163952;27;20013;-47
2022/08/01 12:00:14;;;;;;;;;;;21.70;57.00;;;;;;5164797;27;19983;-57
2022/08/01 12:02:40;;;;;;;;;;;20.90;55.90;;;;;;5167288;27;20516;-45
2022/08/01 12:05:12;;;;;;;;;;;20.80;54.00;;;;;;5163957;27;19976;-46
2022/08/01 12:07:38;;;;;;;;;;;20.60;53.40;;;;;;5169682;27;19923;-47
2022/08/01 12:10:08;;;;;;;;;;;20.30;53.00;;;;;;5163993;27;20055;-44
2022/08/01 12:12:34;;;;;;;;;;;20.30;52.20;;;;;;5163704;27;19960;-46
2022/08/01 12:15:01;;;;;;;;;;;20.20;52.20;;;;;;5169256;27;19927;-46
2022/08/01 12:17:33;;;;;;;;;;;20.20;51.90;;;;;;5162527;27;19959;-46
2022/08/01 12:19:59;;;;;;;;;;;20.00;51.80;;;;;;5162695;27;20625;-47
2022/08/01 12:22:25;;;;;;;;;;;20.50;57.90;;;;;;5150242;27;19927;-47
2022/08/01 12:24:51;;;;;;;;;;;21.30;59.10;;;;;;5163898;27;20019;-47
2022/08/01 12:27:24;;;;;;;;;;;21.80;57.40;;;;;;5167287;27;19978;-54
2022/08/01 12:29:49;;;;;;;;;;;21.20;55.60;;;;;;5168883;27;20221;-49
2022/08/01 12:32:30;;;;;;;;;;;20.80;54.50;;;;;;5163477;27;19923;-46
2022/08/01 12:34:56;;;;;;;;;;;20.70;53.50;;;;;;5148815;27;19987;-49
2022/08/01 12:37:22;;;;;;;;;;;20.60;52.50;;;;;;5162397;27;19922;-46
2022/08/01 12:39:48;;;;;;;;;;;20.40;52.50;;;;;;5163137;27;19927;-46
2022/08/01 12:42:14;;;;;;;;;;;20.30;52.20;;;;;;5168824;27;19942;-48
2022/08/01 12:44:40;;;;;;;;;;;20.20;52.10;;;;;;5163622;27;19923;-45
2022/08/01 12:47:06;;;;;;;;;;;20.00;52.40;;;;;;5142901;27;20486;-47
2022/08/01 12:49:35;;;;;;;;;;;20.10;51.50;;;;;;5150163;27;19930;-45
2022/08/01 12:52:01;;;;;;;;;;;20.00;51.90;;;;;;5163177;27;19977;-46
2022/08/01 12:54:27;;;;;;;;;;;20.00;53.10;;;;;;5163251;27;20029;-54
2022/08/01 12:56:53;;;;;;;;;;;20.80;57.20;;;;;;5166628;27;20461;-49
2022/08/01 12:59:24;;;;;;;;;;;21.50;58.30;;;;;;5161812;27;19973;-49
2022/08/01 13:01:51;;;;;;;;;;;21.90;56.80;;;;;;5168810;27;19922;-45
2022/08/01 13:04:17;;;;;;;;;;;21.10;55.50;;;;;;5163178;27;19937;-47
2022/08/01 13:06:42;;;;;;;;;;;20.80;54.20;;;;;;5162929;27;20293;-46
2022/08/01 13:09:13;;;;;;;;;;;20.70;53.10;;;;;;5168559;27;19922;-45
2022/08/01 13:11:43;;;;;;;;;;;20.50;53.00;;;;;;5144689;27;20426;-46
2022/08/01 13:14:08;;;;;;;;;;;20.30;52.80;;;;;;5161459;27;19953;-46
2022/08/01 13:16:44;;;;;;;;;;;20.30;52.00;;;;;;5167824;27;19977;-46
2022/08/01 13:19:10;;;;;;;;;;;20.20;52.20;;;;;;5162700;27;19927;-48
2022/08/01 13:21:36;;;;;;;;;;;20.20;51.80;;;;;;5163247;27;19923;-55
2022/08/01 13:24:12;;;;;;;;;;;20.10;51.90;;;;;;5168078;27;19923;-50
2022/08/01 13:26:51;;;;;;;;;;;20.20;55.80;;;;;;5162500;27;19937;-50
2022/08/01 13:29:17;;;;;;;;;;;21.10;58.50;;;;;;5164487;27;19923;-56
2022/08/01 13:31:43;;;;;;;;;;;21.90;58.20;;;;;;5146426;27;20015;-45
2022/08/01 13:34:09;;;;;;;;;;;21.50;55.80;;;;;;5161796;27;19926;-48
2022/08/01 13:36:35;;;;;;;;;;;21.10;54.60;;;;;;5167854;27;20022;-45
2022/08/01 13:41:45;;;;;;;;;;;20.70;53.10;;;;;;5162686;27;19922;-46
2022/08/01 13:44:11;;;;;;;;;;;20.40;52.60;;;;;;5167861;27;20009;-46
2022/08/01 13:46:37;;;;;;;;;;;20.40;52.30;;;;;;5162281;27;20427;-47
2022/08/01 13:49:04;;;;;;;;;;;20.20;52.10;;;;;;5161110;27;19970;-48
2022/08/01 13:51:29;;;;;;;;;;;20.20;51.90;;;;;;5166578;27;20014;-46
2022/08/01 13:53:55;;;;;;;;;;;20.00;51.70;;;;;;5162040;27;20342;-45
2022/08/01 13:56:22;;;;;;;;;;;20.20;55.20;;;;;;5164572;27;19937;-55
2022/08/01 13:58:47;;;;;;;;;;;20.90;58.60;;;;;;5165907;27;19923;-46
2022/08/01 14:01:13;;;;;;;;;;;21.80;58.40;;;;;;5162268;27;19922;-46
2022/08/01 14:03:39;;;;;;;;;;;21.60;56.20;;;;;;5167593;27;19930;-48
2022/08/01 14:06:05;;;;;;;;;;;21.10;54.80;;;;;;5162405;27;19927;-46
2022/08/01 14:08:31;;;;;;;;;;;20.80;54.30;;;;;;5160314;27;20357;-50
2022/08/01 14:10:58;;;;;;;;;;;20.70;53.10;;;;;;5166410;27;19922;-47
2022/08/01 14:13:24;;;;;;;;;;;20.50;53.00;;;;;;5161688;27;20356;-47
2022/08/01 14:15:50;;;;;;;;;;;20.50;52.20;;;;;;5162099;27;19932;-46
2022/08/01 14:18:16;;;;;;;;;;;20.30;52.40;;;;;;5167500;27;19945;-49